Renderfarm Status:OK
Avg Time Per Frame:20.7 min/frame
Total Users Today:3
Total CPU Time Today:128.8 Hours
Total Frames Waiting:798
Today's CPU Champion:gbartr20 / 2 days 11 hr
Active Jobs
Job User Frames Renderer Total CPU Average Start End Status
2820 jrubio20 240 mayatomr 0 Hours 0 min 02/08 12:43 AM Ready
2819 qthomp20 6 mayatomr 0 Hours 0 min 02/08 12:16 AM Ready
2816 trober24 180 rman 0 Hours 0 min 02/08 12:13 AM Ready
2815 bmarti35 76 houdini 0 Hours 0 min 02/07 11:49 PM Ready
2814 cscrog20 1 mayatomr 0 Hours 0 min 02/07 11:30 PM Ready
2813 yuzhou22 1 arnold 0 Hours 0 min 02/07 10:29 PM Ready
2812 heren20 75 rman 0 Hours 0 min 02/07 09:50 PM Ready
2811 sthoma30 69 mayatomr 0 Hours 0 min 02/07 09:20 PM Ready
2810 dansoo20 45 houdini 0 Hours 0 min 02/07 09:08 PM Ready
2809 amarqu20 74 mayatomr 0 Hours 0 min 02/07 08:56 PM Rendering
2808 vmoras20 150 houdini 0 Hours 0.3 min 02/07 08:49 PM Rendering
2807 jswarn20 70 mayatomr 7.77 Hours 6.8 min 02/07 08:42 PM Rendering
2805 gbartr20 201 mayatomr 59.2 Hours 35.9 min 02/07 08:19 PM Rendering
2802 intaen20 180 mayatomr 47.08 Hours 16 min 02/07 07:54 PM Rendering
Completed Jobs
Job User Frames Renderer Total CPU Average Start End Speedup Status
2818 qthomp20 10 mayatomr 0 Hours 0 min 02/08 12:16 AM 02/08 12:16 AM 0x Complete!
2817 qthomp20 10 mayatomr 0 Hours 0 min 02/08 12:15 AM 02/08 12:15 AM 0x Complete!
2806 imatta20 7 rman 0.61 Hours 5.2 min 02/07 08:40 PM 02/08 12:36 AM 0.2x Complete!
2804 tylold20 70 mayatomr 25.73 Hours 22.1 min 02/07 08:17 PM 02/08 12:19 AM 6.4x Complete!
2803 bmarti35 75 houdini 0.53 Hours 0.4 min 02/07 08:11 PM 02/07 11:44 PM 0.1x Complete!
2801 tzchen21 120 mayatomr 6.44 Hours 3.2 min 02/07 07:42 PM 02/07 11:45 PM 1.6x Complete!
2800 pestre20 240 mayatomr 0 Hours 0 min 02/07 07:31 PM 02/07 10:48 PM 0x Complete!
2799 jrubio20 240 mayatomr 0 Hours 0 min 02/07 07:20 PM 02/08 12:43 AM 0x Complete!
2798 dfrant20 119 mayatomr 60.21 Hours 30.4 min 02/07 07:14 PM 02/07 11:58 PM 12.7x Complete!
2797 clirea20 80 rman 68.93 Hours 51.7 min 02/07 07:10 PM 02/07 11:37 PM 15.5x Complete!
2796 jrubio20 240 mayatomr 0 Hours 0 min 02/07 07:00 PM 02/07 07:13 PM 0x Complete!
2795 zirali20 180 mayatomr 27.28 Hours 9.1 min 02/07 06:58 PM 02/08 12:44 AM 4.7x Complete!
2794 kpinga20 240 houdini 62.25 Hours 16.3 min 02/07 06:43 PM 02/07 10:11 PM 17.9x Complete!
2793 sthoma30 21 mayatomr 1.08 Hours 3.1 min 02/07 06:40 PM 02/07 09:00 PM 0.5x Complete!
2792 bmarti35 72 houdini 7.4 Hours 6.2 min 02/07 06:31 PM 02/07 08:03 PM 4.8x Complete!
2791 yonkoh20 3 rman 2.77 Hours 55.4 min 02/07 06:08 PM 02/07 08:37 PM 1.1x Complete!
2790 hsutar20 27 mayatomr 0.46 Hours 1 min 02/07 05:48 PM 02/07 07:27 PM 0.3x Complete!
2789 pbritt20 120 houdini 2.34 Hours 1.2 min 02/07 05:30 PM 02/07 07:27 PM 1.2x Complete!
2788 vmoras20 150 houdini 19.29 Hours 7.7 min 02/07 05:25 PM 02/07 07:34 PM 9x Complete!
2787 amarqu20 96 mayatomr 34.42 Hours 21.5 min 02/07 05:20 PM 02/07 07:30 PM 15.8x Complete!
2786 dansoo20 14 houdini 3.26 Hours 14 min 02/07 05:14 PM 02/07 06:59 PM 1.9x Complete!
2785 intaen20 180 mayatomr 2.2 Hours 3.4 min 02/07 05:08 PM 02/07 06:37 PM 1.5x Complete!
2784 intaen20 180 mayatomr 0 Hours 0 min 02/07 05:02 PM 02/07 05:02 PM 0x Complete!
2783 zirali20 180 mayatomr 0.12 Hours 0 min 02/07 04:53 PM 02/07 06:26 PM 0.1x Complete!
2782 jrubio20 240 mayatomr 4.78 Hours 1.2 min 02/07 04:53 PM 02/07 06:27 PM 3x Complete!
2781 adanes20 150 rman 64.55 Hours 35.5 min 02/07 04:40 PM 02/07 08:38 PM 16.3x Complete!
2780 xiaoyu21 130 arnold 35.43 Hours 20.1 min 02/07 04:39 PM 02/07 08:11 PM 10x Complete!
2779 kpinga20 250 houdini 136.48 Hours 32.8 min 02/07 04:34 PM 02/07 06:41 PM 64.3x Complete!
2778 takang20 30 mayatomr 0.09 Hours 0.2 min 02/07 04:26 PM 02/07 04:37 PM 0.5x Complete!
2777 bmarti35 86 houdini 21.14 Hours 14.8 min 02/07 04:26 PM 02/07 05:09 PM 29.2x Complete!
2776 cbense21 100 rman 89.57 Hours 53.7 min 02/07 04:24 PM 02/07 09:51 PM 16.5x Complete!
2775 takang20 30 mayatomr 0 Hours 0 min 02/07 04:21 PM 02/07 04:25 PM 0x Complete!
2774 zirali20 180 mayatomr 28.05 Hours 9.4 min 02/07 04:16 PM 02/07 04:41 PM 66.8x Complete!
2773 takang20 30 mayatomr 0.21 Hours 0.4 min 02/07 04:02 PM 02/07 04:20 PM 0.7x Complete!
2772 takang20 30 mayatomr 0.23 Hours 0.5 min 02/07 03:52 PM 02/07 03:54 PM 7.8x Complete!
2771 jrubio20 240 mayatomr 4.91 Hours 1.2 min 02/07 03:47 PM 02/07 04:05 PM 16.8x Complete!
2770 dansoo20 14 houdini 3.66 Hours 15.7 min 02/07 03:39 PM 02/07 04:09 PM 7.3x Complete!
2769 heren20 84 rman 7.83 Hours 7.8 min 02/07 03:23 PM 02/07 09:16 PM 1.3x Complete!
2768 clirea20 99 rman 67.05 Hours 40.6 min 02/07 03:15 PM 02/07 07:09 PM 17.2x Complete!
2767 dansoo20 37 houdini 10.1 Hours 16.4 min 02/07 02:52 PM 02/07 03:17 PM 24.3x Complete!
2766 imatta20 150 rman 9.49 Hours 3.8 min 02/07 02:33 PM 02/07 07:14 PM 2x Complete!
2765 yonkoh20 100 rman 101.45 Hours 60.9 min 02/07 02:29 PM 02/07 06:07 PM 27.9x Complete!
2764 bmarti35 86 houdini 3.6 Hours 2.5 min 02/07 01:35 PM 02/07 01:39 PM 53x Complete!
2763 yonkoh20 100 rman 8.24 Hours 4.9 min 02/07 01:21 PM 02/07 02:29 PM 7.3x Complete!
2762 tzchen21 90 mayatomr 1.77 Hours 1.2 min 02/07 12:37 PM 02/07 12:48 PM 9.3x Complete!
2761 tzchen21 100 mayatomr 0.53 Hours 0.3 min 02/07 12:01 PM 02/07 12:26 PM 1.3x Complete!
2760 dansoo20 45 houdini 25.32 Hours 33.8 min 02/07 11:39 AM 02/07 12:22 PM 34.8x Complete!
2759 clirea20 200 rman 187.72 Hours 56.3 min 02/07 11:24 AM 02/07 03:09 PM 50.1x Complete!
2758 adanes20 150 rman 113.77 Hours 45.5 min 02/07 08:51 AM 02/07 03:49 PM 16.3x Complete!
2757 kpinga20 240 houdini 103.31 Hours 25.8 min 02/07 07:42 AM 02/07 11:00 AM 31.3x Complete!
Copyright 2014 Savannah College of Art and Design